Saint Helena Island, South Carolina
Current Conditions -  °F | °C
As of 5:35 PM on Sunday 23 Nov 2014 (Local Time) from KARW Reporting Station
Thunderstorm Thunderstorm  
Wind Chill: 68°   Ceiling: 300
Heat Index: 68°   Visibility: 5mi
Dew Point: 68°   Wind: 3mph
Humidity: 100%   Direction: 130°SE
Pressure: 29.83"   Gusts: NA
Location:  32.32°N, 80.48°W
Report Text: KARW 232235Z AUTO 13003KT 5SM TS BR OVC003 20/20 A2983 RMK AO2 LTG DSNT ALQS P0003
Loading
Personal Weather Stations






























Interactive Weather Map New forecast layout! Learn more

10-Day Weather Forecast

Advertisements
Track Severe Weather on mobile